»·PEaware :: SKY103 KPRC-KHII

SKY103 :: KPRC-KHII

FLIGHT INFORMATION

Flight Status: Arrived
Operator:
Sky High Charters
More flights by this operator :: More flights under this callsign
Pilot: Andrew C. (28419)
Aircraft: SOCATA TBM-900
(TBM9)
More flights by this aircraft type
Origin: KPRC Love
United States
Destination: KHII Lake Havasu City
United States
More flights between these airports :: More routes between these airports
Route: +WNSKI2 MUMTE V12 EED
File this flight plan on PilotEdge
Remarks:
Altitude:
(Current/Filed)
11,000ft
Speed:
(Current/Filed)
250kts
Departed: 01-Nov-20 02:39 PM
Arrived: 01-Nov-20 03:17 PM
Distance/Time
Traveled:
96nm/0:38
Distance/Time
To Go:
Arrived

Flight Plot

Page will automatically refresh every two minutes.

Flight plan parsing failed; only flown route is shown


Map Options




Map Legend


Flown Route
Filed Route
Departure Airport
Arrival Airport
Navaid (VOR, NDB)
Fix

Horizontal Profiles

Position Reports

Time Latitude Longitude Heading Altitude Ground
Speed
01-Nov-20 14:20 34.647000 -112.424442 218 5026ft 0kts
01-Nov-20 14:21 34.647000 -112.424442 218 5026ft 0kts
01-Nov-20 14:22 34.647000 -112.424442 218 5026ft 0kts
01-Nov-20 14:23 34.647000 -112.424442 218 5026ft 0kts
01-Nov-20 14:24 34.647000 -112.424442 218 5026ft 0kts
01-Nov-20 14:25 34.647000 -112.424442 218 5026ft 0kts
01-Nov-20 14:26 34.647000 -112.424442 218 5026ft 0kts
01-Nov-20 14:27 34.647000 -112.424442 218 5026ft 0kts
01-Nov-20 14:28 34.647000 -112.424442 218 5026ft 0kts
01-Nov-20 14:29 34.647000 -112.424442 218 5026ft 0kts
01-Nov-20 14:30 34.647000 -112.424442 218 5026ft 0kts
01-Nov-20 14:31 34.647000 -112.424442 218 5026ft 0kts
01-Nov-20 14:32 34.647000 -112.424442 218 5026ft 0kts
01-Nov-20 14:33 34.646906 -112.424553 241 5027ft 5kts
01-Nov-20 14:34 34.649453 -112.425718 314 5018ft 11kts
01-Nov-20 14:35 34.651431 -112.427915 316 5020ft 8kts
01-Nov-20 14:36 34.652364 -112.428355 48 5019ft 0kts
01-Nov-20 14:37 34.652430 -112.428263 48 5018ft 4kts
01-Nov-20 14:38 34.641447 -112.414350 131 5272ft 142kts
01-Nov-20 14:39 34.623065 -112.372301 127 7759ft 136kts
01-Nov-20 14:40 34.599337 -112.337835 131 9835ft 134kts
01-Nov-20 14:41 34.565262 -112.290118 131 10028ft 228kts
01-Nov-20 14:42 34.510145 -112.282951 236 9997ft 265kts
01-Nov-20 14:43 34.471987 -112.362855 244 10000ft 269kts
01-Nov-20 14:44 34.453452 -112.454411 262 10000ft 273kts
01-Nov-20 14:45 34.458913 -112.548500 281 10001ft 277kts
01-Nov-20 14:46 34.487646 -112.635532 299 9999ft 279kts
01-Nov-20 14:47 34.537972 -112.709016 318 9998ft 279kts
01-Nov-20 14:48 34.604700 -112.759999 337 9999ft 279kts
01-Nov-20 14:49 34.680147 -112.783156 355 9998ft 277kts
01-Nov-20 14:50 34.728584 -112.834607 251 9973ft 272kts
01-Nov-20 14:51 34.719615 -112.926212 270 9885ft 277kts
01-Nov-20 14:52 34.723081 -113.022372 270 9788ft 278kts
01-Nov-20 14:53 34.726410 -113.116904 270 9752ft 278kts
01-Nov-20 14:54 34.729677 -113.212179 270 9758ft 277kts
01-Nov-20 14:55 34.732881 -113.307701 270 9763ft 277kts
01-Nov-20 14:56 34.735978 -113.401963 270 9768ft 277kts
01-Nov-20 14:57 34.739047 -113.497979 270 9849ft 275kts
01-Nov-20 14:58 34.742032 -113.593482 270 10037ft 275kts
01-Nov-20 14:59 34.744937 -113.689160 269 10039ft 277kts
01-Nov-20 15:00 34.747802 -113.785886 269 10043ft 277kts
01-Nov-20 15:01 34.750573 -113.881908 269 10048ft 277kts
01-Nov-20 15:02 34.753253 -113.977281 269 10052ft 276kts
01-Nov-20 15:03 34.755857 -114.072619 269 10043ft 277kts
01-Nov-20 15:04 34.730888 -114.148605 185 10006ft 258kts
01-Nov-20 15:05 34.662897 -114.126767 166 10002ft 254kts
01-Nov-20 15:06 34.595120 -114.109853 166 9499ft 248kts
01-Nov-20 15:07 34.527600 -114.093004 165 8390ft 241kts
01-Nov-20 15:08 34.461245 -114.076466 165 7326ft 235kts
01-Nov-20 15:09 34.407001 -114.099761 235 7001ft 229kts
01-Nov-20 15:10 34.375185 -114.165486 236 6998ft 222kts
01-Nov-20 15:11 34.382987 -114.226047 334 5168ft 224kts
01-Nov-20 15:12 34.438350 -114.264437 331 3687ft 240kts
01-Nov-20 15:13 34.496769 -114.305709 331 2299ft 235kts
01-Nov-20 15:14 34.539420 -114.335858 331 1333ft 100kts
01-Nov-20 15:15 34.561406 -114.351397 332 806ft 80kts
01-Nov-20 15:16 34.567326 -114.356870 321 751ft 8kts
01-Nov-20 15:17 34.567346 -114.358798 305 732ft 0kts
01-Nov-20 15:18 34.567346 -114.358798 305 732ft 0kts
01-Nov-20 15:19 34.567346 -114.358798 305 732ft 0kts
01-Nov-20 15:20 34.567346 -114.358798 305 732ft 0kts
01-Nov-20 15:21 34.567346 -114.358798 305 732ft 0kts
01-Nov-20 15:22 34.567346 -114.358798 305 732ft 0kts
01-Nov-20 15:23 34.567346 -114.358798 305 732ft 0kts

Navigation Log

Ident Type
Flight plan parsing failed, navigation log unavailable